sensor_id;sensor_type;location;lat;lon;timestamp;P1;durP1;ratioP1;P2;durP2;ratioP2
74789;SDS011;63318;52.406;13.416;2022-11-11T00:00:04;8.10;;;2.20;;
74789;SDS011;63318;52.406;13.416;2022-11-11T00:02:36;11.80;;;2.50;;
74789;SDS011;63318;52.406;13.416;2022-11-11T00:05:05;9.50;;;2.20;;
74789;SDS011;63318;52.406;13.416;2022-11-11T00:07:35;5.50;;;2.10;;
74789;SDS011;63318;52.406;13.416;2022-11-11T00:10:04;7.90;;;2.20;;
74789;SDS011;63318;52.406;13.416;2022-11-11T00:12:34;7.00;;;2.00;;
74789;SDS011;63318;52.406;13.416;2022-11-11T00:15:02;8.10;;;1.70;;
74789;SDS011;63318;52.406;13.416;2022-11-11T00:17:33;12.60;;;2.30;;
74789;SDS011;63318;52.406;13.416;2022-11-11T00:20:01;7.20;;;2.20;;
74789;SDS011;63318;52.406;13.416;2022-11-11T00:22:30;6.10;;;2.40;;
74789;SDS011;63318;52.406;13.416;2022-11-11T00:24:58;6.60;;;2.10;;
74789;SDS011;63318;52.406;13.416;2022-11-11T00:27:27;11.60;;;2.40;;
74789;SDS011;63318;52.406;13.416;2022-11-11T00:29:56;9.80;;;2.60;;
74789;SDS011;63318;52.406;13.416;2022-11-11T00:32:24;7.20;;;2.10;;
74789;SDS011;63318;52.406;13.416;2022-11-11T00:34:53;7.90;;;2.90;;
74789;SDS011;63318;52.406;13.416;2022-11-11T00:37:22;7.60;;;2.20;;
74789;SDS011;63318;52.406;13.416;2022-11-11T00:39:51;12.40;;;3.10;;
74789;SDS011;63318;52.406;13.416;2022-11-11T00:42:19;10.30;;;2.20;;
74789;SDS011;63318;52.406;13.416;2022-11-11T00:44:47;8.60;;;2.80;;
74789;SDS011;63318;52.406;13.416;2022-11-11T00:47:15;8.80;;;1.90;;
74789;SDS011;63318;52.406;13.416;2022-11-11T00:49:43;12.00;;;2.50;;
74789;SDS011;63318;52.406;13.416;2022-11-11T00:52:12;7.40;;;2.50;;
74789;SDS011;63318;52.406;13.416;2022-11-11T00:54:40;7.80;;;2.10;;
74789;SDS011;63318;52.406;13.416;2022-11-11T00:57:09;9.40;;;2.40;;
74789;SDS011;63318;52.406;13.416;2022-11-11T00:59:37;8.00;;;2.00;;
74789;SDS011;63318;52.406;13.416;2022-11-11T01:02:05;6.70;;;2.00;;
74789;SDS011;63318;52.406;13.416;2022-11-11T01:04:33;5.30;;;2.00;;
74789;SDS011;63318;52.406;13.416;2022-11-11T01:07:02;10.40;;;2.50;;
74789;SDS011;63318;52.406;13.416;2022-11-11T01:09:30;6.80;;;2.40;;
74789;SDS011;63318;52.406;13.416;2022-11-11T01:11:58;8.90;;;2.40;;
74789;SDS011;63318;52.406;13.416;2022-11-11T01:14:27;7.10;;;2.30;;
74789;SDS011;63318;52.406;13.416;2022-11-11T01:16:55;11.00;;;2.60;;
74789;SDS011;63318;52.406;13.416;2022-11-11T01:19:24;10.50;;;2.60;;
74789;SDS011;63318;52.406;13.416;2022-11-11T01:21:52;11.70;;;2.50;;
74789;SDS011;63318;52.406;13.416;2022-11-11T01:24:20;11.90;;;2.50;;
74789;SDS011;63318;52.406;13.416;2022-11-11T01:26:49;8.10;;;2.60;;
74789;SDS011;63318;52.406;13.416;2022-11-11T01:29:17;7.70;;;2.20;;
74789;SDS011;63318;52.406;13.416;2022-11-11T01:31:45;8.60;;;2.40;;
74789;SDS011;63318;52.406;13.416;2022-11-11T01:34:13;10.40;;;2.80;;
74789;SDS011;63318;52.406;13.416;2022-11-11T01:36:42;9.10;;;2.60;;
74789;SDS011;63318;52.406;13.416;2022-11-11T01:39:10;10.40;;;2.50;;
74789;SDS011;63318;52.406;13.416;2022-11-11T01:41:38;12.80;;;2.70;;
74789;SDS011;63318;52.406;13.416;2022-11-11T01:44:15;7.50;;;2.30;;
74789;SDS011;63318;52.406;13.416;2022-11-11T01:47:05;6.50;;;2.40;;
74789;SDS011;63318;52.406;13.416;2022-11-11T01:49:35;10.20;;;2.70;;
74789;SDS011;63318;52.406;13.416;2022-11-11T01:52:13;7.40;;;2.00;;
74789;SDS011;63318;52.406;13.416;2022-11-11T01:54:45;11.70;;;3.20;;
74789;SDS011;63318;52.406;13.416;2022-11-11T01:57:18;12.70;;;2.80;;
74789;SDS011;63318;52.406;13.416;2022-11-11T01:59:51;5.80;;;2.20;;
74789;SDS011;63318;52.406;13.416;2022-11-11T02:02:25;13.20;;;3.10;;
74789;SDS011;63318;52.406;13.416;2022-11-11T02:04:59;13.70;;;3.10;;
74789;SDS011;63318;52.406;13.416;2022-11-11T02:07:29;9.00;;;2.80;;
74789;SDS011;63318;52.406;13.416;2022-11-11T02:09:59;12.00;;;3.30;;
74789;SDS011;63318;52.406;13.416;2022-11-11T02:12:31;9.00;;;2.40;;
74789;SDS011;63318;52.406;13.416;2022-11-11T02:14:59;8.40;;;2.70;;
74789;SDS011;63318;52.406;13.416;2022-11-11T02:17:29;6.90;;;2.50;;
74789;SDS011;63318;52.406;13.416;2022-11-11T02:19:58;10.60;;;3.00;;
74789;SDS011;63318;52.406;13.416;2022-11-11T02:22:32;11.40;;;3.30;;
74789;SDS011;63318;52.406;13.416;2022-11-11T02:25:08;9.80;;;3.10;;
74789;SDS011;63318;52.406;13.416;2022-11-11T02:27:38;10.10;;;2.60;;
74789;SDS011;63318;52.406;13.416;2022-11-11T02:30:10;7.60;;;2.60;;
74789;SDS011;63318;52.406;13.416;2022-11-11T02:32:39;8.90;;;2.40;;
74789;SDS011;63318;52.406;13.416;2022-11-11T02:35:10;10.10;;;2.90;;
74789;SDS011;63318;52.406;13.416;2022-11-11T02:37:42;9.50;;;2.40;;
74789;SDS011;63318;52.406;13.416;2022-11-11T02:40:15;9.30;;;2.80;;
74789;SDS011;63318;52.406;13.416;2022-11-11T02:42:46;8.40;;;2.60;;
74789;SDS011;63318;52.406;13.416;2022-11-11T02:45:14;7.30;;;2.70;;
74789;SDS011;63318;52.406;13.416;2022-11-11T02:47:43;9.20;;;2.90;;
74789;SDS011;63318;52.406;13.416;2022-11-11T02:50:11;9.50;;;2.50;;
74789;SDS011;63318;52.406;13.416;2022-11-11T02:52:40;7.60;;;2.70;;
74789;SDS011;63318;52.406;13.416;2022-11-11T02:55:08;8.70;;;2.40;;
74789;SDS011;63318;52.406;13.416;2022-11-11T02:57:38;6.70;;;2.60;;
74789;SDS011;63318;52.406;13.416;2022-11-11T03:00:08;9.70;;;2.80;;
74789;SDS011;63318;52.406;13.416;2022-11-11T03:02:37;8.80;;;2.80;;
74789;SDS011;63318;52.406;13.416;2022-11-11T03:05:06;8.30;;;2.90;;
74789;SDS011;63318;52.406;13.416;2022-11-11T03:07:35;11.70;;;3.00;;
74789;SDS011;63318;52.406;13.416;2022-11-11T03:10:03;7.00;;;2.70;;
74789;SDS011;63318;52.406;13.416;2022-11-11T03:12:32;6.50;;;2.50;;
74789;SDS011;63318;52.406;13.416;2022-11-11T03:15:01;9.20;;;2.40;;
74789;SDS011;63318;52.406;13.416;2022-11-11T03:17:29;7.30;;;2.70;;
74789;SDS011;63318;52.406;13.416;2022-11-11T03:19:57;8.30;;;2.20;;
74789;SDS011;63318;52.406;13.416;2022-11-11T03:22:26;6.80;;;3.00;;
74789;SDS011;63318;52.406;13.416;2022-11-11T03:24:54;6.50;;;2.30;;
74789;SDS011;63318;52.406;13.416;2022-11-11T03:27:22;6.80;;;2.50;;
74789;SDS011;63318;52.406;13.416;2022-11-11T03:29:51;7.90;;;2.90;;
74789;SDS011;63318;52.406;13.416;2022-11-11T03:32:19;11.60;;;3.10;;
74789;SDS011;63318;52.406;13.416;2022-11-11T03:34:47;9.40;;;2.50;;
74789;SDS011;63318;52.406;13.416;2022-11-11T03:37:16;9.90;;;2.60;;
74789;SDS011;63318;52.406;13.416;2022-11-11T03:39:44;6.50;;;2.90;;
74789;SDS011;63318;52.406;13.416;2022-11-11T03:42:12;9.40;;;3.00;;
74789;SDS011;63318;52.406;13.416;2022-11-11T03:44:41;12.90;;;3.10;;
74789;SDS011;63318;52.406;13.416;2022-11-11T03:47:09;8.40;;;3.40;;
74789;SDS011;63318;52.406;13.416;2022-11-11T03:49:37;11.10;;;3.20;;
74789;SDS011;63318;52.406;13.416;2022-11-11T03:52:06;10.00;;;2.90;;
74789;SDS011;63318;52.406;13.416;2022-11-11T03:54:34;10.60;;;3.80;;
74789;SDS011;63318;52.406;13.416;2022-11-11T03:57:02;13.40;;;3.90;;
74789;SDS011;63318;52.406;13.416;2022-11-11T03:59:30;8.10;;;3.40;;
74789;SDS011;63318;52.406;13.416;2022-11-11T04:01:58;11.80;;;3.10;;
74789;SDS011;63318;52.406;13.416;2022-11-11T04:04:27;12.80;;;2.90;;
74789;SDS011;63318;52.406;13.416;2022-11-11T04:06:55;9.00;;;3.40;;
74789;SDS011;63318;52.406;13.416;2022-11-11T04:09:24;9.60;;;2.90;;
74789;SDS011;63318;52.406;13.416;2022-11-11T04:11:53;7.70;;;2.90;;
74789;SDS011;63318;52.406;13.416;2022-11-11T04:14:21;9.20;;;3.10;;
74789;SDS011;63318;52.406;13.416;2022-11-11T04:16:49;9.10;;;3.20;;
74789;SDS011;63318;52.406;13.416;2022-11-11T04:19:17;8.90;;;3.10;;
74789;SDS011;63318;52.406;13.416;2022-11-11T04:21:45;10.80;;;2.90;;
74789;SDS011;63318;52.406;13.416;2022-11-11T04:24:15;7.40;;;3.00;;
74789;SDS011;63318;52.406;13.416;2022-11-11T04:26:44;12.00;;;3.20;;
74789;SDS011;63318;52.406;13.416;2022-11-11T04:29:12;7.00;;;2.50;;
74789;SDS011;63318;52.406;13.416;2022-11-11T04:31:40;7.70;;;3.10;;
74789;SDS011;63318;52.406;13.416;2022-11-11T04:34:09;8.00;;;3.10;;
74789;SDS011;63318;52.406;13.416;2022-11-11T04:36:37;6.80;;;3.00;;
74789;SDS011;63318;52.406;13.416;2022-11-11T04:39:05;12.00;;;3.20;;
74789;SDS011;63318;52.406;13.416;2022-11-11T04:41:33;8.60;;;2.90;;
74789;SDS011;63318;52.406;13.416;2022-11-11T04:44:02;12.40;;;3.30;;
74789;SDS011;63318;52.406;13.416;2022-11-11T04:46:30;8.10;;;3.20;;
74789;SDS011;63318;52.406;13.416;2022-11-11T04:48:59;8.10;;;3.00;;
74789;SDS011;63318;52.406;13.416;2022-11-11T04:51:27;7.80;;;2.90;;
74789;SDS011;63318;52.406;13.416;2022-11-11T04:53:58;10.00;;;3.00;;
74789;SDS011;63318;52.406;13.416;2022-11-11T04:56:27;9.80;;;2.80;;
74789;SDS011;63318;52.406;13.416;2022-11-11T04:58:55;10.10;;;2.80;;
74789;SDS011;63318;52.406;13.416;2022-11-11T05:01:23;6.40;;;2.50;;
74789;SDS011;63318;52.406;13.416;2022-11-11T05:03:52;7.50;;;2.70;;
74789;SDS011;63318;52.406;13.416;2022-11-11T05:06:21;7.70;;;2.90;;
74789;SDS011;63318;52.406;13.416;2022-11-11T05:08:49;10.40;;;2.80;;
74789;SDS011;63318;52.406;13.416;2022-11-11T05:11:18;11.90;;;2.90;;
74789;SDS011;63318;52.406;13.416;2022-11-11T05:13:47;10.40;;;3.20;;
74789;SDS011;63318;52.406;13.416;2022-11-11T05:16:17;10.40;;;3.30;;
74789;SDS011;63318;52.406;13.416;2022-11-11T05:18:48;9.70;;;3.10;;
74789;SDS011;63318;52.406;13.416;2022-11-11T05:21:17;8.10;;;2.80;;
74789;SDS011;63318;52.406;13.416;2022-11-11T05:23:49;8.30;;;3.10;;
74789;SDS011;63318;52.406;13.416;2022-11-11T05:26:17;10.00;;;3.40;;
74789;SDS011;63318;52.406;13.416;2022-11-11T05:28:45;7.90;;;2.90;;
74789;SDS011;63318;52.406;13.416;2022-11-11T05:31:14;8.20;;;3.40;;
74789;SDS011;63318;52.406;13.416;2022-11-11T05:33:42;9.50;;;3.40;;
74789;SDS011;63318;52.406;13.416;2022-11-11T05:36:10;9.10;;;3.20;;
74789;SDS011;63318;52.406;13.416;2022-11-11T05:38:39;10.40;;;4.00;;
74789;SDS011;63318;52.406;13.416;2022-11-11T05:41:07;11.70;;;3.10;;
74789;SDS011;63318;52.406;13.416;2022-11-11T05:43:35;10.90;;;3.30;;
74789;SDS011;63318;52.406;13.416;2022-11-11T05:46:04;9.80;;;3.10;;
74789;SDS011;63318;52.406;13.416;2022-11-11T05:48:32;9.50;;;3.30;;
74789;SDS011;63318;52.406;13.416;2022-11-11T05:51:00;13.30;;;3.30;;
74789;SDS011;63318;52.406;13.416;2022-11-11T05:53:29;7.30;;;3.10;;
74789;SDS011;63318;52.406;13.416;2022-11-11T05:55:57;7.10;;;2.70;;
74789;SDS011;63318;52.406;13.416;2022-11-11T05:58:25;8.30;;;3.20;;
74789;SDS011;63318;52.406;13.416;2022-11-11T06:00:53;6.50;;;2.90;;
74789;SDS011;63318;52.406;13.416;2022-11-11T06:03:21;8.20;;;3.10;;
74789;SDS011;63318;52.406;13.416;2022-11-11T06:05:51;7.70;;;2.70;;
74789;SDS011;63318;52.406;13.416;2022-11-11T06:08:20;7.50;;;3.10;;
74789;SDS011;63318;52.406;13.416;2022-11-11T06:10:48;5.70;;;3.00;;
74789;SDS011;63318;52.406;13.416;2022-11-11T06:13:16;10.60;;;3.20;;
74789;SDS011;63318;52.406;13.416;2022-11-11T06:15:45;9.50;;;3.00;;
74789;SDS011;63318;52.406;13.416;2022-11-11T06:18:13;8.40;;;3.40;;
74789;SDS011;63318;52.406;13.416;2022-11-11T06:20:41;11.10;;;3.00;;
74789;SDS011;63318;52.406;13.416;2022-11-11T06:23:09;8.30;;;2.90;;
74789;SDS011;63318;52.406;13.416;2022-11-11T06:25:38;8.60;;;3.20;;
74789;SDS011;63318;52.406;13.416;2022-11-11T06:28:06;9.90;;;3.50;;
74789;SDS011;63318;52.406;13.416;2022-11-11T06:30:34;10.80;;;3.50;;
74789;SDS011;63318;52.406;13.416;2022-11-11T06:33:04;9.80;;;3.90;;
74789;SDS011;63318;52.406;13.416;2022-11-11T06:35:32;9.90;;;3.20;;
74789;SDS011;63318;52.406;13.416;2022-11-11T06:38:01;7.10;;;3.30;;
74789;SDS011;63318;52.406;13.416;2022-11-11T06:40:31;9.20;;;2.80;;
74789;SDS011;63318;52.406;13.416;2022-11-11T06:42:59;7.70;;;3.00;;
74789;SDS011;63318;52.406;13.416;2022-11-11T06:45:29;7.20;;;3.10;;
74789;SDS011;63318;52.406;13.416;2022-11-11T06:47:57;8.40;;;3.40;;
74789;SDS011;63318;52.406;13.416;2022-11-11T06:50:25;6.30;;;2.80;;
74789;SDS011;63318;52.406;13.416;2022-11-11T06:52:54;8.60;;;3.10;;
74789;SDS011;63318;52.406;13.416;2022-11-11T06:55:22;11.10;;;3.60;;
74789;SDS011;63318;52.406;13.416;2022-11-11T06:57:50;8.60;;;3.00;;
74789;SDS011;63318;52.406;13.416;2022-11-11T07:00:19;8.70;;;2.80;;
74789;SDS011;63318;52.406;13.416;2022-11-11T07:02:48;7.10;;;2.50;;
74789;SDS011;63318;52.406;13.416;2022-11-11T07:05:21;9.60;;;3.30;;
74789;SDS011;63318;52.406;13.416;2022-11-11T07:07:50;11.30;;;3.50;;
74789;SDS011;63318;52.406;13.416;2022-11-11T07:10:18;8.20;;;2.90;;
74789;SDS011;63318;52.406;13.416;2022-11-11T07:12:47;7.10;;;3.30;;
74789;SDS011;63318;52.406;13.416;2022-11-11T07:15:15;10.10;;;3.00;;
74789;SDS011;63318;52.406;13.416;2022-11-11T07:17:43;7.60;;;3.10;;
74789;SDS011;63318;52.406;13.416;2022-11-11T07:20:12;9.40;;;3.20;;
74789;SDS011;63318;52.406;13.416;2022-11-11T07:22:40;6.80;;;2.70;;
74789;SDS011;63318;52.406;13.416;2022-11-11T07:25:09;10.60;;;3.20;;
74789;SDS011;63318;52.406;13.416;2022-11-11T07:27:38;9.30;;;2.80;;
74789;SDS011;63318;52.406;13.416;2022-11-11T07:30:08;8.90;;;2.50;;
74789;SDS011;63318;52.406;13.416;2022-11-11T07:32:38;8.30;;;3.40;;
74789;SDS011;63318;52.406;13.416;2022-11-11T07:35:11;12.00;;;3.10;;
74789;SDS011;63318;52.406;13.416;2022-11-11T07:37:40;8.40;;;3.20;;
74789;SDS011;63318;52.406;13.416;2022-11-11T07:40:14;8.70;;;2.70;;
74789;SDS011;63318;52.406;13.416;2022-11-11T07:42:44;6.60;;;2.50;;
74789;SDS011;63318;52.406;13.416;2022-11-11T07:45:12;7.10;;;2.90;;
74789;SDS011;63318;52.406;13.416;2022-11-11T07:47:43;7.30;;;2.70;;
74789;SDS011;63318;52.406;13.416;2022-11-11T07:50:11;8.50;;;2.70;;
74789;SDS011;63318;52.406;13.416;2022-11-11T07:52:40;8.60;;;2.60;;
74789;SDS011;63318;52.406;13.416;2022-11-11T07:55:13;8.20;;;3.00;;
74789;SDS011;63318;52.406;13.416;2022-11-11T07:57:41;8.50;;;2.60;;
74789;SDS011;63318;52.406;13.416;2022-11-11T08:00:10;7.40;;;2.30;;
74789;SDS011;63318;52.406;13.416;2022-11-11T08:02:39;8.00;;;2.50;;
74789;SDS011;63318;52.406;13.416;2022-11-11T08:05:11;6.30;;;2.60;;
74789;SDS011;63318;52.406;13.416;2022-11-11T08:07:40;8.50;;;3.10;;
74789;SDS011;63318;52.406;13.416;2022-11-11T08:10:11;9.60;;;2.60;;
74789;SDS011;63318;52.406;13.416;2022-11-11T08:12:39;8.40;;;3.00;;
74789;SDS011;63318;52.406;13.416;2022-11-11T08:15:07;6.30;;;2.50;;
74789;SDS011;63318;52.406;13.416;2022-11-11T08:17:40;8.90;;;2.70;;
74789;SDS011;63318;52.406;13.416;2022-11-11T08:20:11;12.00;;;3.20;;
74789;SDS011;63318;52.406;13.416;2022-11-11T08:22:40;13.00;;;3.10;;
74789;SDS011;63318;52.406;13.416;2022-11-11T08:25:11;7.50;;;2.90;;
74789;SDS011;63318;52.406;13.416;2022-11-11T08:27:41;5.60;;;2.10;;
74789;SDS011;63318;52.406;13.416;2022-11-11T08:30:12;8.20;;;2.40;;
74789;SDS011;63318;52.406;13.416;2022-11-11T08:32:41;12.70;;;3.00;;
74789;SDS011;63318;52.406;13.416;2022-11-11T08:35:09;9.80;;;2.50;;
74789;SDS011;63318;52.406;13.416;2022-11-11T08:37:37;8.30;;;2.70;;
74789;SDS011;63318;52.406;13.416;2022-11-11T08:40:06;9.00;;;2.60;;
74789;SDS011;63318;52.406;13.416;2022-11-11T08:42:36;8.90;;;2.50;;
74789;SDS011;63318;52.406;13.416;2022-11-11T08:45:05;7.10;;;2.50;;
74789;SDS011;63318;52.406;13.416;2022-11-11T08:47:33;7.10;;;2.40;;
74789;SDS011;63318;52.406;13.416;2022-11-11T08:50:02;7.80;;;2.40;;
74789;SDS011;63318;52.406;13.416;2022-11-11T08:52:32;6.00;;;2.40;;
74789;SDS011;63318;52.406;13.416;2022-11-11T08:55:00;9.90;;;3.30;;
74789;SDS011;63318;52.406;13.416;2022-11-11T08:57:29;5.10;;;2.30;;
74789;SDS011;63318;52.406;13.416;2022-11-11T08:59:57;10.20;;;2.50;;
74789;SDS011;63318;52.406;13.416;2022-11-11T09:02:26;9.50;;;2.10;;
74789;SDS011;63318;52.406;13.416;2022-11-11T09:04:55;8.10;;;2.10;;
74789;SDS011;63318;52.406;13.416;2022-11-11T09:07:24;6.50;;;2.60;;
74789;SDS011;63318;52.406;13.416;2022-11-11T09:09:52;12.20;;;3.40;;
74789;SDS011;63318;52.406;13.416;2022-11-11T09:12:21;9.80;;;2.80;;
74789;SDS011;63318;52.406;13.416;2022-11-11T09:14:49;6.70;;;2.00;;
74789;SDS011;63318;52.406;13.416;2022-11-11T09:17:18;6.40;;;2.70;;
74789;SDS011;63318;52.406;13.416;2022-11-11T09:19:48;5.50;;;1.80;;
74789;SDS011;63318;52.406;13.416;2022-11-11T09:22:19;5.40;;;1.60;;
74789;SDS011;63318;52.406;13.416;2022-11-11T09:24:47;7.10;;;2.00;;
74789;SDS011;63318;52.406;13.416;2022-11-11T09:27:15;8.10;;;2.50;;
74789;SDS011;63318;52.406;13.416;2022-11-11T09:29:44;9.80;;;3.10;;
74789;SDS011;63318;52.406;13.416;2022-11-11T09:32:12;9.10;;;2.80;;
74789;SDS011;63318;52.406;13.416;2022-11-11T09:34:41;10.90;;;2.20;;
74789;SDS011;63318;52.406;13.416;2022-11-11T09:37:10;5.50;;;2.20;;
74789;SDS011;63318;52.406;13.416;2022-11-11T09:39:38;7.00;;;2.50;;
74789;SDS011;63318;52.406;13.416;2022-11-11T09:42:09;6.50;;;2.20;;
74789;SDS011;63318;52.406;13.416;2022-11-11T09:44:51;6.20;;;2.00;;
74789;SDS011;63318;52.406;13.416;2022-11-11T09:47:33;7.20;;;2.90;;
74789;SDS011;63318;52.406;13.416;2022-11-11T09:50:07;7.80;;;2.70;;
74789;SDS011;63318;52.406;13.416;2022-11-11T09:52:39;7.10;;;2.00;;
74789;SDS011;63318;52.406;13.416;2022-11-11T09:55:14;6.40;;;2.30;;
74789;SDS011;63318;52.406;13.416;2022-11-11T09:57:46;10.80;;;2.70;;
74789;SDS011;63318;52.406;13.416;2022-11-11T10:00:19;7.40;;;2.70;;
74789;SDS011;63318;52.406;13.416;2022-11-11T10:02:50;5.30;;;1.70;;
74789;SDS011;63318;52.406;13.416;2022-11-11T10:05:23;8.00;;;2.10;;
74789;SDS011;63318;52.406;13.416;2022-11-11T10:07:53;11.30;;;1.90;;
74789;SDS011;63318;52.406;13.416;2022-11-11T10:10:28;6.70;;;2.10;;
74789;SDS011;63318;52.406;13.416;2022-11-11T10:13:07;7.20;;;2.10;;
74789;SDS011;63318;52.406;13.416;2022-11-11T10:15:42;7.60;;;1.90;;
74789;SDS011;63318;52.406;13.416;2022-11-11T10:18:25;6.70;;;1.90;;
74789;SDS011;63318;52.406;13.416;2022-11-11T10:21:07;6.30;;;2.40;;
74789;SDS011;63318;52.406;13.416;2022-11-11T10:23:41;12.30;;;2.20;;
74789;SDS011;63318;52.406;13.416;2022-11-11T10:26:16;5.00;;;1.60;;
74789;SDS011;63318;52.406;13.416;2022-11-11T10:28:46;5.30;;;1.70;;
74789;SDS011;63318;52.406;13.416;2022-11-11T10:31:20;5.50;;;1.90;;
74789;SDS011;63318;52.406;13.416;2022-11-11T10:33:53;6.60;;;1.80;;
74789;SDS011;63318;52.406;13.416;2022-11-11T10:36:26;7.50;;;1.60;;
74789;SDS011;63318;52.406;13.416;2022-11-11T10:38:57;9.10;;;2.30;;
74789;SDS011;63318;52.406;13.416;2022-11-11T10:41:28;7.40;;;1.80;;
74789;SDS011;63318;52.406;13.416;2022-11-11T10:44:00;6.50;;;2.10;;
74789;SDS011;63318;52.406;13.416;2022-11-11T10:46:45;7.10;;;1.60;;
74789;SDS011;63318;52.406;13.416;2022-11-11T10:49:22;7.30;;;1.60;;
74789;SDS011;63318;52.406;13.416;2022-11-11T10:51:55;6.10;;;1.70;;
74789;SDS011;63318;52.406;13.416;2022-11-11T10:54:28;5.60;;;1.60;;
74789;SDS011;63318;52.406;13.416;2022-11-11T10:57:04;5.70;;;1.70;;
74789;SDS011;63318;52.406;13.416;2022-11-11T10:59:43;6.60;;;1.60;;
74789;SDS011;63318;52.406;13.416;2022-11-11T11:02:18;4.00;;;1.60;;
74789;SDS011;63318;52.406;13.416;2022-11-11T11:04:52;4.40;;;1.50;;
74789;SDS011;63318;52.406;13.416;2022-11-11T11:07:26;5.90;;;1.70;;
74789;SDS011;63318;52.406;13.416;2022-11-11T11:10:00;6.50;;;1.80;;
74789;SDS011;63318;52.406;13.416;2022-11-11T11:12:33;5.50;;;1.40;;
74789;SDS011;63318;52.406;13.416;2022-11-11T11:15:09;5.50;;;1.60;;
74789;SDS011;63318;52.406;13.416;2022-11-11T11:17:41;7.50;;;1.60;;
74789;SDS011;63318;52.406;13.416;2022-11-11T11:20:17;7.00;;;2.20;;
74789;SDS011;63318;52.406;13.416;2022-11-11T11:22:48;7.50;;;1.60;;
74789;SDS011;63318;52.406;13.416;2022-11-11T11:25:18;6.00;;;1.60;;
74789;SDS011;63318;52.406;13.416;2022-11-11T11:27:48;4.70;;;1.40;;
74789;SDS011;63318;52.406;13.416;2022-11-11T11:30:18;6.10;;;1.40;;
74789;SDS011;63318;52.406;13.416;2022-11-11T11:32:58;8.50;;;1.70;;
74789;SDS011;63318;52.406;13.416;2022-11-11T11:35:33;8.20;;;1.80;;
74789;SDS011;63318;52.406;13.416;2022-11-11T11:38:04;6.60;;;1.60;;
74789;SDS011;63318;52.406;13.416;2022-11-11T11:40:47;5.90;;;1.50;;
74789;SDS011;63318;52.406;13.416;2022-11-11T11:43:30;4.20;;;1.30;;
74789;SDS011;63318;52.406;13.416;2022-11-11T11:46:01;5.20;;;1.60;;
74789;SDS011;63318;52.406;13.416;2022-11-11T11:48:34;6.30;;;1.90;;
74789;SDS011;63318;52.406;13.416;2022-11-11T11:51:16;5.00;;;1.60;;
74789;SDS011;63318;52.406;13.416;2022-11-11T11:53:56;6.00;;;1.60;;
74789;SDS011;63318;52.406;13.416;2022-11-11T11:59:08;6.80;;;1.50;;
74789;SDS011;63318;52.406;13.416;2022-11-11T12:01:55;4.80;;;1.50;;
74789;SDS011;63318;52.406;13.416;2022-11-11T12:04:38;5.50;;;1.70;;
74789;SDS011;63318;52.406;13.416;2022-11-11T12:07:26;6.80;;;1.90;;
74789;SDS011;63318;52.406;13.416;2022-11-11T12:10:15;7.70;;;1.60;;
74789;SDS011;63318;52.406;13.416;2022-11-11T12:12:57;6.50;;;1.50;;
74789;SDS011;63318;52.406;13.416;2022-11-11T12:15:37;4.20;;;1.40;;
74789;SDS011;63318;52.406;13.416;2022-11-11T12:18:23;5.80;;;1.60;;
74789;SDS011;63318;52.406;13.416;2022-11-11T12:21:07;4.30;;;1.50;;
74789;SDS011;63318;52.406;13.416;2022-11-11T12:23:45;5.10;;;1.40;;
74789;SDS011;63318;52.406;13.416;2022-11-11T12:26:23;4.90;;;1.50;;
74789;SDS011;63318;52.406;13.416;2022-11-11T12:29:04;4.40;;;1.70;;
74789;SDS011;63318;52.406;13.416;2022-11-11T12:31:43;4.10;;;1.20;;
74789;SDS011;63318;52.406;13.416;2022-11-11T12:34:34;4.30;;;1.50;;
74789;SDS011;63318;52.406;13.416;2022-11-11T12:37:15;5.80;;;2.10;;
74789;SDS011;63318;52.406;13.416;2022-11-11T12:39:53;4.60;;;1.40;;
74789;SDS011;63318;52.406;13.416;2022-11-11T12:42:43;7.00;;;1.60;;
74789;SDS011;63318;52.406;13.416;2022-11-11T12:45:22;8.40;;;1.80;;
74789;SDS011;63318;52.406;13.416;2022-11-11T12:48:00;5.70;;;1.70;;
74789;SDS011;63318;52.406;13.416;2022-11-11T12:50:37;4.50;;;1.50;;
74789;SDS011;63318;52.406;13.416;2022-11-11T12:53:15;5.80;;;1.50;;
74789;SDS011;63318;52.406;13.416;2022-11-11T12:55:57;5.40;;;1.70;;
74789;SDS011;63318;52.406;13.416;2022-11-11T12:58:32;8.60;;;2.40;;
74789;SDS011;63318;52.406;13.416;2022-11-11T13:01:15;5.20;;;1.50;;
74789;SDS011;63318;52.406;13.416;2022-11-11T13:04:01;6.10;;;1.60;;
74789;SDS011;63318;52.406;13.416;2022-11-11T13:06:59;4.70;;;1.70;;
74789;SDS011;63318;52.406;13.416;2022-11-11T13:09:59;6.20;;;1.50;;
74789;SDS011;63318;52.406;13.416;2022-11-11T13:12:41;5.60;;;1.50;;
74789;SDS011;63318;52.406;13.416;2022-11-11T13:15:16;6.80;;;1.60;;
74789;SDS011;63318;52.406;13.416;2022-11-11T13:17:47;3.70;;;1.60;;
74789;SDS011;63318;52.406;13.416;2022-11-11T13:20:18;6.70;;;1.60;;
74789;SDS011;63318;52.406;13.416;2022-11-11T13:22:58;3.90;;;1.60;;
74789;SDS011;63318;52.406;13.416;2022-11-11T13:25:27;8.30;;;1.60;;
74789;SDS011;63318;52.406;13.416;2022-11-11T13:28:00;5.90;;;1.50;;
74789;SDS011;63318;52.406;13.416;2022-11-11T13:30:45;5.60;;;1.40;;
74789;SDS011;63318;52.406;13.416;2022-11-11T13:33:26;3.60;;;1.40;;
74789;SDS011;63318;52.406;13.416;2022-11-11T13:36:05;6.20;;;1.90;;
74789;SDS011;63318;52.406;13.416;2022-11-11T13:38:37;6.40;;;1.50;;
74789;SDS011;63318;52.406;13.416;2022-11-11T13:41:12;4.20;;;1.50;;
74789;SDS011;63318;52.406;13.416;2022-11-11T13:43:49;5.70;;;1.60;;
74789;SDS011;63318;52.406;13.416;2022-11-11T13:46:36;5.80;;;1.50;;
74789;SDS011;63318;52.406;13.416;2022-11-11T13:49:07;4.80;;;1.70;;
74789;SDS011;63318;52.406;13.416;2022-11-11T13:51:51;6.20;;;1.60;;
74789;SDS011;63318;52.406;13.416;2022-11-11T13:54:47;7.30;;;1.60;;
74789;SDS011;63318;52.406;13.416;2022-11-11T13:57:20;5.20;;;1.60;;
74789;SDS011;63318;52.406;13.416;2022-11-11T13:59:52;10.00;;;1.70;;
74789;SDS011;63318;52.406;13.416;2022-11-11T14:02:30;7.40;;;1.50;;
74789;SDS011;63318;52.406;13.416;2022-11-11T14:07:50;4.20;;;1.60;;
74789;SDS011;63318;52.406;13.416;2022-11-11T14:13:39;8.80;;;1.70;;
74789;SDS011;63318;52.406;13.416;2022-11-11T14:17:01;5.20;;;1.50;;
74789;SDS011;63318;52.406;13.416;2022-11-11T14:19:28;6.20;;;1.60;;
74789;SDS011;63318;52.406;13.416;2022-11-11T14:21:57;7.60;;;1.60;;
74789;SDS011;63318;52.406;13.416;2022-11-11T14:24:28;4.90;;;1.70;;
74789;SDS011;63318;52.406;13.416;2022-11-11T14:27:01;4.70;;;1.50;;
74789;SDS011;63318;52.406;13.416;2022-11-11T14:29:47;7.20;;;2.40;;
74789;SDS011;63318;52.406;13.416;2022-11-11T14:35:17;5.90;;;1.60;;
74789;SDS011;63318;52.406;13.416;2022-11-11T14:38:06;5.20;;;1.40;;
74789;SDS011;63318;52.406;13.416;2022-11-11T14:40:47;5.50;;;1.50;;
74789;SDS011;63318;52.406;13.416;2022-11-11T14:43:34;4.10;;;1.40;;
74789;SDS011;63318;52.406;13.416;2022-11-11T14:46:05;6.00;;;1.80;;
74789;SDS011;63318;52.406;13.416;2022-11-11T14:48:54;5.20;;;1.30;;
74789;SDS011;63318;52.406;13.416;2022-11-11T14:51:44;3.20;;;1.40;;
74789;SDS011;63318;52.406;13.416;2022-11-11T14:54:16;6.60;;;1.60;;
74789;SDS011;63318;52.406;13.416;2022-11-11T14:56:56;7.80;;;1.50;;
74789;SDS011;63318;52.406;13.416;2022-11-11T14:59:30;4.50;;;1.30;;
74789;SDS011;63318;52.406;13.416;2022-11-11T15:02:00;7.60;;;1.20;;
74789;SDS011;63318;52.406;13.416;2022-11-11T15:04:36;6.70;;;1.50;;
74789;SDS011;63318;52.406;13.416;2022-11-11T15:07:12;5.00;;;1.50;;
74789;SDS011;63318;52.406;13.416;2022-11-11T15:10:06;8.20;;;1.60;;